sensor_id;sensor_type;location;lat;lon;timestamp;temperature;humidity
51327;DHT22;37412;52.836;6.362;2024-01-15T00:01:30;1.60;99.90
51327;DHT22;37412;52.836;6.362;2024-01-15T00:04:16;2.80;99.90
51327;DHT22;37412;52.836;6.362;2024-01-15T00:07:02;1.60;99.90
51327;DHT22;37412;52.836;6.362;2024-01-15T00:09:48;1.60;99.90
51327;DHT22;37412;52.836;6.362;2024-01-15T00:12:34;2.90;99.90
51327;DHT22;37412;52.836;6.362;2024-01-15T00:15:20;1.60;99.90
51327;DHT22;37412;52.836;6.362;2024-01-15T00:18:06;2.90;99.90
51327;DHT22;37412;52.836;6.362;2024-01-15T00:20:52;1.60;99.90
51327;DHT22;37412;52.836;6.362;2024-01-15T00:23:42;1.60;99.90
51327;DHT22;37412;52.836;6.362;2024-01-15T00:26:33;1.60;99.90
51327;DHT22;37412;52.836;6.362;2024-01-15T00:29:19;1.50;99.90
51327;DHT22;37412;52.836;6.362;2024-01-15T00:32:05;1.60;99.90
51327;DHT22;37412;52.836;6.362;2024-01-15T00:34:51;1.50;99.90
51327;DHT22;37412;52.836;6.362;2024-01-15T00:37:37;2.20;99.90
51327;DHT22;37412;52.836;6.362;2024-01-15T00:40:23;1.50;99.90
51327;DHT22;37412;52.836;6.362;2024-01-15T00:43:11;1.40;99.90
51327;DHT22;37412;52.836;6.362;2024-01-15T00:45:57;1.50;99.90
51327;DHT22;37412;52.836;6.362;2024-01-15T00:48:43;1.50;99.90
51327;DHT22;37412;52.836;6.362;2024-01-15T00:51:29;2.10;99.90
51327;DHT22;37412;52.836;6.362;2024-01-15T00:54:15;1.50;99.90
51327;DHT22;37412;52.836;6.362;2024-01-15T00:57:01;1.50;99.90
51327;DHT22;37412;52.836;6.362;2024-01-15T00:59:48;1.50;99.90
51327;DHT22;37412;52.836;6.362;2024-01-15T01:02:34;1.50;99.90
51327;DHT22;37412;52.836;6.362;2024-01-15T01:05:20;2.70;99.90
51327;DHT22;37412;52.836;6.362;2024-01-15T01:08:06;1.50;99.90
51327;DHT22;37412;52.836;6.362;2024-01-15T01:10:52;1.50;99.90
51327;DHT22;37412;52.836;6.362;2024-01-15T01:13:42;2.20;99.90
51327;DHT22;37412;52.836;6.362;2024-01-15T01:16:28;1.60;99.90
51327;DHT22;37412;52.836;6.362;2024-01-15T01:19:15;1.50;99.90
51327;DHT22;37412;52.836;6.362;2024-01-15T01:22:02;1.60;99.90
51327;DHT22;37412;52.836;6.362;2024-01-15T01:24:48;1.60;99.90
51327;DHT22;37412;52.836;6.362;2024-01-15T01:27:36;1.60;99.90
51327;DHT22;37412;52.836;6.362;2024-01-15T01:30:22;1.70;99.90
51327;DHT22;37412;52.836;6.362;2024-01-15T01:33:08;1.80;99.90
51327;DHT22;37412;52.836;6.362;2024-01-15T01:35:54;1.80;99.90
51327;DHT22;37412;52.836;6.362;2024-01-15T01:38:43;1.90;99.90
51327;DHT22;37412;52.836;6.362;2024-01-15T01:41:29;1.90;99.90
51327;DHT22;37412;52.836;6.362;2024-01-15T01:44:15;1.90;99.90
51327;DHT22;37412;52.836;6.362;2024-01-15T01:47:01;1.90;99.90
51327;DHT22;37412;52.836;6.362;2024-01-15T01:49:47;1.90;99.90
51327;DHT22;37412;52.836;6.362;2024-01-15T01:52:34;1.80;99.90
51327;DHT22;37412;52.836;6.362;2024-01-15T01:55:26;1.80;99.90
51327;DHT22;37412;52.836;6.362;2024-01-15T01:58:13;1.80;99.90
51327;DHT22;37412;52.836;6.362;2024-01-15T02:00:59;1.80;99.90
51327;DHT22;37412;52.836;6.362;2024-01-15T02:03:45;1.80;99.90
51327;DHT22;37412;52.836;6.362;2024-01-15T02:06:31;1.70;99.90
51327;DHT22;37412;52.836;6.362;2024-01-15T02:09:18;1.80;99.90
51327;DHT22;37412;52.836;6.362;2024-01-15T02:12:04;1.70;99.90
51327;DHT22;37412;52.836;6.362;2024-01-15T02:14:50;1.70;99.90
51327;DHT22;37412;52.836;6.362;2024-01-15T02:17:59;1.70;99.90
51327;DHT22;37412;52.836;6.362;2024-01-15T02:20:46;1.70;99.90
51327;DHT22;37412;52.836;6.362;2024-01-15T02:23:32;1.70;99.90
51327;DHT22;37412;52.836;6.362;2024-01-15T02:26:18;1.70;99.90
51327;DHT22;37412;52.836;6.362;2024-01-15T02:29:06;1.70;99.90
51327;DHT22;37412;52.836;6.362;2024-01-15T02:31:53;1.70;99.90
51327;DHT22;37412;52.836;6.362;2024-01-15T02:34:38;1.70;99.90
51327;DHT22;37412;52.836;6.362;2024-01-15T02:37:25;1.70;99.90
51327;DHT22;37412;52.836;6.362;2024-01-15T02:40:11;1.70;99.90
51327;DHT22;37412;52.836;6.362;2024-01-15T02:42:57;1.70;99.90
51327;DHT22;37412;52.836;6.362;2024-01-15T02:45:43;1.70;99.90
51327;DHT22;37412;52.836;6.362;2024-01-15T02:48:29;1.70;99.90
51327;DHT22;37412;52.836;6.362;2024-01-15T02:51:15;1.70;99.90
51327;DHT22;37412;52.836;6.362;2024-01-15T02:54:01;1.70;99.90
51327;DHT22;37412;52.836;6.362;2024-01-15T02:56:47;1.70;99.90
51327;DHT22;37412;52.836;6.362;2024-01-15T02:59:33;1.60;99.90
51327;DHT22;37412;52.836;6.362;2024-01-15T03:02:19;1.60;99.90
51327;DHT22;37412;52.836;6.362;2024-01-15T03:05:06;1.60;99.90
51327;DHT22;37412;52.836;6.362;2024-01-15T03:07:53;1.60;99.90
51327;DHT22;37412;52.836;6.362;2024-01-15T03:10:39;1.60;99.90
51327;DHT22;37412;52.836;6.362;2024-01-15T03:13:25;1.60;99.90
51327;DHT22;37412;52.836;6.362;2024-01-15T03:16:11;1.60;99.90
51327;DHT22;37412;52.836;6.362;2024-01-15T03:18:57;1.60;99.90
51327;DHT22;37412;52.836;6.362;2024-01-15T03:21:43;1.60;99.90
51327;DHT22;37412;52.836;6.362;2024-01-15T03:24:29;1.60;99.90
51327;DHT22;37412;52.836;6.362;2024-01-15T03:27:15;1.60;99.90
51327;DHT22;37412;52.836;6.362;2024-01-15T03:30:01;1.60;99.90
51327;DHT22;37412;52.836;6.362;2024-01-15T03:32:48;2.30;99.90
51327;DHT22;37412;52.836;6.362;2024-01-15T03:35:35;3.50;99.90
51327;DHT22;37412;52.836;6.362;2024-01-15T03:38:23;1.70;99.90
51327;DHT22;37412;52.836;6.362;2024-01-15T03:41:09;1.80;99.90
51327;DHT22;37412;52.836;6.362;2024-01-15T03:43:55;1.80;99.90
51327;DHT22;37412;52.836;6.362;2024-01-15T03:46:41;1.80;99.90
51327;DHT22;37412;52.836;6.362;2024-01-15T03:49:27;1.70;99.90
51327;DHT22;37412;52.836;6.362;2024-01-15T03:52:14;1.70;99.90
51327;DHT22;37412;52.836;6.362;2024-01-15T03:55:00;1.70;99.90
51327;DHT22;37412;52.836;6.362;2024-01-15T03:57:46;1.60;99.90
51327;DHT22;37412;52.836;6.362;2024-01-15T04:00:33;1.80;99.90
51327;DHT22;37412;52.836;6.362;2024-01-15T04:03:20;1.60;99.90
51327;DHT22;37412;52.836;6.362;2024-01-15T04:06:06;1.60;99.90
51327;DHT22;37412;52.836;6.362;2024-01-15T04:08:52;1.60;99.90
51327;DHT22;37412;52.836;6.362;2024-01-15T04:11:38;1.60;99.90
51327;DHT22;37412;52.836;6.362;2024-01-15T04:14:24;1.70;99.90
51327;DHT22;37412;52.836;6.362;2024-01-15T04:17:10;1.70;99.90
51327;DHT22;37412;52.836;6.362;2024-01-15T04:19:55;1.70;99.90
51327;DHT22;37412;52.836;6.362;2024-01-15T04:22:41;1.70;99.90
51327;DHT22;37412;52.836;6.362;2024-01-15T04:25:29;1.70;99.90
51327;DHT22;37412;52.836;6.362;2024-01-15T04:28:18;1.70;99.90
51327;DHT22;37412;52.836;6.362;2024-01-15T04:31:04;1.80;99.90
51327;DHT22;37412;52.836;6.362;2024-01-15T04:33:50;1.80;99.90
51327;DHT22;37412;52.836;6.362;2024-01-15T04:36:42;1.80;99.90
51327;DHT22;37412;52.836;6.362;2024-01-15T04:39:28;1.70;99.90
51327;DHT22;37412;52.836;6.362;2024-01-15T04:42:14;1.80;99.90
51327;DHT22;37412;52.836;6.362;2024-01-15T04:45:01;1.80;99.90
51327;DHT22;37412;52.836;6.362;2024-01-15T04:47:47;1.80;99.90
51327;DHT22;37412;52.836;6.362;2024-01-15T04:50:32;1.90;99.90
51327;DHT22;37412;52.836;6.362;2024-01-15T04:53:18;1.90;99.90
51327;DHT22;37412;52.836;6.362;2024-01-15T04:56:06;1.90;99.90
51327;DHT22;37412;52.836;6.362;2024-01-15T04:58:52;1.90;99.90
51327;DHT22;37412;52.836;6.362;2024-01-15T05:01:41;1.90;99.90
51327;DHT22;37412;52.836;6.362;2024-01-15T05:04:28;1.80;99.90
51327;DHT22;37412;52.836;6.362;2024-01-15T05:07:14;3.50;99.90
51327;DHT22;37412;52.836;6.362;2024-01-15T05:10:00;1.70;99.90
51327;DHT22;37412;52.836;6.362;2024-01-15T05:12:49;1.70;99.90
51327;DHT22;37412;52.836;6.362;2024-01-15T05:15:35;1.60;99.90
51327;DHT22;37412;52.836;6.362;2024-01-15T05:18:21;1.50;99.90
51327;DHT22;37412;52.836;6.362;2024-01-15T05:21:17;1.50;99.90
51327;DHT22;37412;52.836;6.362;2024-01-15T05:24:03;1.40;99.90
51327;DHT22;37412;52.836;6.362;2024-01-15T05:26:52;1.40;99.90
51327;DHT22;37412;52.836;6.362;2024-01-15T05:29:38;1.40;99.90
51327;DHT22;37412;52.836;6.362;2024-01-15T05:32:27;1.40;99.90
51327;DHT22;37412;52.836;6.362;2024-01-15T05:35:13;1.50;99.90
51327;DHT22;37412;52.836;6.362;2024-01-15T05:37:59;1.40;99.90
51327;DHT22;37412;52.836;6.362;2024-01-15T05:40:45;1.50;99.90
51327;DHT22;37412;52.836;6.362;2024-01-15T05:43:31;1.50;99.90
51327;DHT22;37412;52.836;6.362;2024-01-15T05:46:17;3.00;99.90
51327;DHT22;37412;52.836;6.362;2024-01-15T05:49:03;1.50;99.90
51327;DHT22;37412;52.836;6.362;2024-01-15T05:51:49;1.50;99.90
51327;DHT22;37412;52.836;6.362;2024-01-15T05:54:35;1.50;99.90
51327;DHT22;37412;52.836;6.362;2024-01-15T05:57:21;1.50;99.90
51327;DHT22;37412;52.836;6.362;2024-01-15T06:00:07;1.50;99.90
51327;DHT22;37412;52.836;6.362;2024-01-15T06:02:54;1.50;99.90
51327;DHT22;37412;52.836;6.362;2024-01-15T06:05:40;1.50;99.90
51327;DHT22;37412;52.836;6.362;2024-01-15T06:08:27;2.30;99.90
51327;DHT22;37412;52.836;6.362;2024-01-15T06:11:13;1.50;99.90
51327;DHT22;37412;52.836;6.362;2024-01-15T06:13:59;1.40;99.90
51327;DHT22;37412;52.836;6.362;2024-01-15T06:16:52;1.40;99.90
51327;DHT22;37412;52.836;6.362;2024-01-15T06:19:41;1.40;99.90
51327;DHT22;37412;52.836;6.362;2024-01-15T06:22:27;1.40;99.90
51327;DHT22;37412;52.836;6.362;2024-01-15T06:25:13;1.40;99.90
51327;DHT22;37412;52.836;6.362;2024-01-15T06:28:00;1.40;99.90
51327;DHT22;37412;52.836;6.362;2024-01-15T06:30:46;1.30;99.90
51327;DHT22;37412;52.836;6.362;2024-01-15T06:33:32;1.30;99.90
51327;DHT22;37412;52.836;6.362;2024-01-15T06:36:18;1.30;99.90
51327;DHT22;37412;52.836;6.362;2024-01-15T06:39:04;1.20;99.90
51327;DHT22;37412;52.836;6.362;2024-01-15T06:41:50;1.50;99.90
51327;DHT22;37412;52.836;6.362;2024-01-15T06:44:36;1.90;99.90
51327;DHT22;37412;52.836;6.362;2024-01-15T06:47:22;1.00;99.90
51327;DHT22;37412;52.836;6.362;2024-01-15T06:50:08;1.00;99.90
51327;DHT22;37412;52.836;6.362;2024-01-15T06:52:55;1.00;99.90
51327;DHT22;37412;52.836;6.362;2024-01-15T06:55:40;1.00;99.90
51327;DHT22;37412;52.836;6.362;2024-01-15T06:58:26;1.00;99.90
51327;DHT22;37412;52.836;6.362;2024-01-15T07:01:14;1.00;99.90
51327;DHT22;37412;52.836;6.362;2024-01-15T07:04:03;1.00;99.90
51327;DHT22;37412;52.836;6.362;2024-01-15T07:06:49;1.10;99.90
51327;DHT22;37412;52.836;6.362;2024-01-15T07:09:35;1.90;99.90
51327;DHT22;37412;52.836;6.362;2024-01-15T07:12:21;2.80;99.90
51327;DHT22;37412;52.836;6.362;2024-01-15T07:15:07;1.20;99.90
51327;DHT22;37412;52.836;6.362;2024-01-15T07:17:53;1.20;99.90
51327;DHT22;37412;52.836;6.362;2024-01-15T07:20:39;1.20;99.90
51327;DHT22;37412;52.836;6.362;2024-01-15T07:23:25;1.20;99.90
51327;DHT22;37412;52.836;6.362;2024-01-15T07:26:11;1.20;99.90
51327;DHT22;37412;52.836;6.362;2024-01-15T07:28:57;1.20;99.90
51327;DHT22;37412;52.836;6.362;2024-01-15T07:31:50;1.20;99.90
51327;DHT22;37412;52.836;6.362;2024-01-15T07:34:37;-0.60;99.90
51327;DHT22;37412;52.836;6.362;2024-01-15T07:37:23;2.30;99.90
51327;DHT22;37412;52.836;6.362;2024-01-15T07:40:09;1.10;99.90
51327;DHT22;37412;52.836;6.362;2024-01-15T07:42:56;1.10;99.90
51327;DHT22;37412;52.836;6.362;2024-01-15T07:45:42;1.00;99.90
51327;DHT22;37412;52.836;6.362;2024-01-15T07:48:28;1.00;99.90
51327;DHT22;37412;52.836;6.362;2024-01-15T07:51:14;1.00;99.90
51327;DHT22;37412;52.836;6.362;2024-01-15T07:54:00;1.20;99.90
51327;DHT22;37412;52.836;6.362;2024-01-15T07:57:00;1.00;99.90
51327;DHT22;37412;52.836;6.362;2024-01-15T07:59:46;1.00;99.90
51327;DHT22;37412;52.836;6.362;2024-01-15T08:02:32;0.90;99.90
51327;DHT22;37412;52.836;6.362;2024-01-15T08:05:18;0.90;99.90
51327;DHT22;37412;52.836;6.362;2024-01-15T08:08:04;1.70;99.90
51327;DHT22;37412;52.836;6.362;2024-01-15T08:10:50;1.00;99.90
51327;DHT22;37412;52.836;6.362;2024-01-15T08:13:36;0.90;99.90
51327;DHT22;37412;52.836;6.362;2024-01-15T08:16:22;1.00;99.90
51327;DHT22;37412;52.836;6.362;2024-01-15T08:19:10;1.30;99.90
51327;DHT22;37412;52.836;6.362;2024-01-15T08:21:57;1.00;99.90
51327;DHT22;37412;52.836;6.362;2024-01-15T08:24:44;2.40;99.90
51327;DHT22;37412;52.836;6.362;2024-01-15T08:27:30;1.20;99.90
51327;DHT22;37412;52.836;6.362;2024-01-15T08:30:16;1.30;99.90
51327;DHT22;37412;52.836;6.362;2024-01-15T08:33:04;1.40;99.90
51327;DHT22;37412;52.836;6.362;2024-01-15T08:35:50;1.40;99.90
51327;DHT22;37412;52.836;6.362;2024-01-15T08:38:36;1.50;99.90
51327;DHT22;37412;52.836;6.362;2024-01-15T08:41:22;1.50;99.90
51327;DHT22;37412;52.836;6.362;2024-01-15T08:44:09;1.50;99.90
51327;DHT22;37412;52.836;6.362;2024-01-15T08:46:55;3.00;99.90
51327;DHT22;37412;52.836;6.362;2024-01-15T08:49:41;1.60;99.90
51327;DHT22;37412;52.836;6.362;2024-01-15T08:52:29;1.70;99.90
51327;DHT22;37412;52.836;6.362;2024-01-15T08:55:15;1.80;99.90
51327;DHT22;37412;52.836;6.362;2024-01-15T08:58:01;1.70;99.90
51327;DHT22;37412;52.836;6.362;2024-01-15T09:00:47;1.70;99.90
51327;DHT22;37412;52.836;6.362;2024-01-15T09:03:33;1.60;99.90
51327;DHT22;37412;52.836;6.362;2024-01-15T09:06:22;1.60;99.90
51327;DHT22;37412;52.836;6.362;2024-01-15T09:09:08;1.60;99.90
51327;DHT22;37412;52.836;6.362;2024-01-15T09:11:54;1.70;99.90
51327;DHT22;37412;52.836;6.362;2024-01-15T09:14:40;1.90;99.90
51327;DHT22;37412;52.836;6.362;2024-01-15T09:17:26;1.90;99.90
51327;DHT22;37412;52.836;6.362;2024-01-15T09:20:14;1.90;99.90
51327;DHT22;37412;52.836;6.362;2024-01-15T09:23:00;1.80;99.90
51327;DHT22;37412;52.836;6.362;2024-01-15T09:25:46;1.70;99.90
51327;DHT22;37412;52.836;6.362;2024-01-15T09:28:33;1.70;99.90
51327;DHT22;37412;52.836;6.362;2024-01-15T09:31:19;1.70;99.90
51327;DHT22;37412;52.836;6.362;2024-01-15T09:34:06;1.70;99.90
51327;DHT22;37412;52.836;6.362;2024-01-15T09:36:52;3.50;99.90
51327;DHT22;37412;52.836;6.362;2024-01-15T09:39:38;2.40;99.90
51327;DHT22;37412;52.836;6.362;2024-01-15T09:42:24;1.60;99.90
51327;DHT22;37412;52.836;6.362;2024-01-15T09:45:11;1.60;99.90
51327;DHT22;37412;52.836;6.362;2024-01-15T09:47:57;3.10;99.90
51327;DHT22;37412;52.836;6.362;2024-01-15T09:50:43;3.50;99.90
51327;DHT22;37412;52.836;6.362;2024-01-15T09:53:30;1.80;99.90
51327;DHT22;37412;52.836;6.362;2024-01-15T09:56:16;1.90;99.90
51327;DHT22;37412;52.836;6.362;2024-01-15T09:59:02;3.10;99.90
51327;DHT22;37412;52.836;6.362;2024-01-15T10:01:50;2.20;99.90
51327;DHT22;37412;52.836;6.362;2024-01-15T10:04:39;3.10;99.90
51327;DHT22;37412;52.836;6.362;2024-01-15T10:07:25;3.10;99.90
51327;DHT22;37412;52.836;6.362;2024-01-15T10:10:11;2.50;99.90
51327;DHT22;37412;52.836;6.362;2024-01-15T10:12:58;2.40;99.90
51327;DHT22;37412;52.836;6.362;2024-01-15T10:15:46;2.40;99.90
51327;DHT22;37412;52.836;6.362;2024-01-15T10:18:34;2.30;99.90
51327;DHT22;37412;52.836;6.362;2024-01-15T10:21:22;2.20;99.90
51327;DHT22;37412;52.836;6.362;2024-01-15T10:24:08;2.40;99.90
51327;DHT22;37412;52.836;6.362;2024-01-15T10:27:05;2.10;99.90
51327;DHT22;37412;52.836;6.362;2024-01-15T10:29:51;2.10;99.90
51327;DHT22;37412;52.836;6.362;2024-01-15T10:32:38;2.10;99.90
51327;DHT22;37412;52.836;6.362;2024-01-15T10:35:29;2.30;99.90
51327;DHT22;37412;52.836;6.362;2024-01-15T10:38:15;2.50;99.90
51327;DHT22;37412;52.836;6.362;2024-01-15T10:41:03;2.70;99.90
51327;DHT22;37412;52.836;6.362;2024-01-15T10:43:51;3.20;99.90
51327;DHT22;37412;52.836;6.362;2024-01-15T10:46:37;3.30;99.90
51327;DHT22;37412;52.836;6.362;2024-01-15T10:49:26;4.50;99.90
51327;DHT22;37412;52.836;6.362;2024-01-15T10:52:15;3.20;99.90
51327;DHT22;37412;52.836;6.362;2024-01-15T10:55:03;3.10;99.90
51327;DHT22;37412;52.836;6.362;2024-01-15T10:57:50;3.00;99.90
51327;DHT22;37412;52.836;6.362;2024-01-15T11:00:40;3.90;99.90
51327;DHT22;37412;52.836;6.362;2024-01-15T11:03:26;2.80;99.90
51327;DHT22;37412;52.836;6.362;2024-01-15T11:06:19;2.70;99.90
51327;DHT22;37412;52.836;6.362;2024-01-15T11:09:07;3.10;99.90
51327;DHT22;37412;52.836;6.362;2024-01-15T11:12:07;2.60;99.90
51327;DHT22;37412;52.836;6.362;2024-01-15T11:15:02;2.60;99.90
51327;DHT22;37412;52.836;6.362;2024-01-15T11:18:01;2.60;99.90
51327;DHT22;37412;52.836;6.362;2024-01-15T11:24:02;2.50;99.90
51327;DHT22;37412;52.836;6.362;2024-01-15T11:26:48;2.50;99.90
51327;DHT22;37412;52.836;6.362;2024-01-15T11:29:37;4.00;99.90
51327;DHT22;37412;52.836;6.362;2024-01-15T11:32:33;2.50;99.90
51327;DHT22;37412;52.836;6.362;2024-01-15T11:35:19;2.50;99.90
51327;DHT22;37412;52.836;6.362;2024-01-15T11:38:05;2.50;99.90
51327;DHT22;37412;52.836;6.362;2024-01-15T11:40:52;3.60;99.90
51327;DHT22;37412;52.836;6.362;2024-01-15T11:43:38;2.50;99.90
51327;DHT22;37412;52.836;6.362;2024-01-15T11:46:26;2.60;99.90
51327;DHT22;37412;52.836;6.362;2024-01-15T11:50:09;2.70;99.90
51327;DHT22;37412;52.836;6.362;2024-01-15T11:52:36;2.70;99.90
51327;DHT22;37412;52.836;6.362;2024-01-15T11:55:27;2.60;99.90
51327;DHT22;37412;52.836;6.362;2024-01-15T11:58:16;3.20;99.90
51327;DHT22;37412;52.836;6.362;2024-01-15T12:01:02;4.50;99.90
51327;DHT22;37412;52.836;6.362;2024-01-15T12:03:48;2.70;99.90
51327;DHT22;37412;52.836;6.362;2024-01-15T12:06:35;2.70;99.90
51327;DHT22;37412;52.836;6.362;2024-01-15T12:09:21;2.60;99.90
51327;DHT22;37412;52.836;6.362;2024-01-15T12:12:09;2.40;99.90
51327;DHT22;37412;52.836;6.362;2024-01-15T12:15:00;2.20;99.90
51327;DHT22;37412;52.836;6.362;2024-01-15T12:17:46;2.10;99.90
51327;DHT22;37412;52.836;6.362;2024-01-15T12:20:33;2.00;99.90
51327;DHT22;37412;52.836;6.362;2024-01-15T12:23:19;1.90;99.90
51327;DHT22;37412;52.836;6.362;2024-01-15T12:26:05;3.60;99.90
51327;DHT22;37412;52.836;6.362;2024-01-15T12:28:51;1.80;99.90
51327;DHT22;37412;52.836;6.362;2024-01-15T12:31:37;2.60;99.90
51327;DHT22;37412;52.836;6.362;2024-01-15T12:34:23;1.80;99.90
51327;DHT22;37412;52.836;6.362;2024-01-15T12:37:09;1.70;99.90
51327;DHT22;37412;52.836;6.362;2024-01-15T12:39:58;1.70;99.90
51327;DHT22;37412;52.836;6.362;2024-01-15T12:42:44;2.50;99.90
51327;DHT22;37412;52.836;6.362;2024-01-15T12:45:30;1.70;99.90
51327;DHT22;37412;52.836;6.362;2024-01-15T12:48:17;1.80;99.90
51327;DHT22;37412;52.836;6.362;2024-01-15T12:51:06;1.80;99.90
51327;DHT22;37412;52.836;6.362;2024-01-15T12:53:53;1.90;99.90
51327;DHT22;37412;52.836;6.362;2024-01-15T12:56:39;2.10;99.90
51327;DHT22;37412;52.836;6.362;2024-01-15T12:59:25;2.30;99.90
51327;DHT22;37412;52.836;6.362;2024-01-15T13:02:11;2.40;99.90
51327;DHT22;37412;52.836;6.362;2024-01-15T13:04:58;2.40;99.90
51327;DHT22;37412;52.836;6.362;2024-01-15T13:07:45;2.50;99.90
51327;DHT22;37412;52.836;6.362;2024-01-15T13:10:31;3.90;99.90
51327;DHT22;37412;52.836;6.362;2024-01-15T13:13:17;3.20;99.90
51327;DHT22;37412;52.836;6.362;2024-01-15T13:16:04;3.00;99.90
51327;DHT22;37412;52.836;6.362;2024-01-15T13:18:50;3.20;99.90
51327;DHT22;37412;52.836;6.362;2024-01-15T13:21:35;3.20;99.90
51327;DHT22;37412;52.836;6.362;2024-01-15T13:24:21;3.30;99.90
51327;DHT22;37412;52.836;6.362;2024-01-15T13:27:08;3.30;99.90
51327;DHT22;37412;52.836;6.362;2024-01-15T13:29:54;3.20;99.90
51327;DHT22;37412;52.836;6.362;2024-01-15T13:32:40;3.20;99.90
51327;DHT22;37412;52.836;6.362;2024-01-15T13:35:29;3.10;99.90
51327;DHT22;37412;52.836;6.362;2024-01-15T13:38:15;3.10;99.90
51327;DHT22;37412;52.836;6.362;2024-01-15T13:41:01;4.50;99.90
51327;DHT22;37412;52.836;6.362;2024-01-15T13:43:50;2.90;99.90
51327;DHT22;37412;52.836;6.362;2024-01-15T13:46:36;2.90;99.90
51327;DHT22;37412;52.836;6.362;2024-01-15T13:49:24;2.70;99.90
51327;DHT22;37412;52.836;6.362;2024-01-15T13:52:10;2.70;99.90
51327;DHT22;37412;52.836;6.362;2024-01-15T13:54:56;2.70;99.90
51327;DHT22;37412;52.836;6.362;2024-01-15T13:57:42;2.80;99.90
51327;DHT22;37412;52.836;6.362;2024-01-15T14:00:28;2.90;99.90
51327;DHT22;37412;52.836;6.362;2024-01-15T14:03:15;4.40;99.90
51327;DHT22;37412;52.836;6.362;2024-01-15T14:06:01;3.30;99.90
51327;DHT22;37412;52.836;6.362;2024-01-15T14:08:54;3.60;99.90
51327;DHT22;37412;52.836;6.362;2024-01-15T14:11:40;3.80;99.90
51327;DHT22;37412;52.836;6.362;2024-01-15T14:14:27;3.90;99.90
51327;DHT22;37412;52.836;6.362;2024-01-15T14:17:13;4.80;99.90
51327;DHT22;37412;52.836;6.362;2024-01-15T14:20:01;4.10;99.90
51327;DHT22;37412;52.836;6.362;2024-01-15T14:22:50;4.20;99.90
51327;DHT22;37412;52.836;6.362;2024-01-15T14:25:36;3.90;99.90
51327;DHT22;37412;52.836;6.362;2024-01-15T14:28:22;3.50;99.90
51327;DHT22;37412;52.836;6.362;2024-01-15T14:31:09;3.30;99.90
51327;DHT22;37412;52.836;6.362;2024-01-15T14:33:55;3.00;99.90
51327;DHT22;37412;52.836;6.362;2024-01-15T14:36:41;2.80;99.90
51327;DHT22;37412;52.836;6.362;2024-01-15T14:39:27;2.70;99.90
51327;DHT22;37412;52.836;6.362;2024-01-15T14:42:13;3.60;99.90
51327;DHT22;37412;52.836;6.362;2024-01-15T14:44:59;2.60;99.90
51327;DHT22;37412;52.836;6.362;2024-01-15T14:47:44;2.60;99.90
51327;DHT22;37412;52.836;6.362;2024-01-15T14:50:30;2.70;99.90
51327;DHT22;37412;52.836;6.362;2024-01-15T14:53:16;2.70;99.90
51327;DHT22;37412;52.836;6.362;2024-01-15T14:56:03;2.80;99.90
51327;DHT22;37412;52.836;6.362;2024-01-15T14:58:49;2.80;99.90
51327;DHT22;37412;52.836;6.362;2024-01-15T15:01:35;2.70;99.90
51327;DHT22;37412;52.836;6.362;2024-01-15T15:04:21;2.60;99.90
51327;DHT22;37412;52.836;6.362;2024-01-15T15:07:07;2.60;99.90
51327;DHT22;37412;52.836;6.362;2024-01-15T15:09:53;2.50;99.90
51327;DHT22;37412;52.836;6.362;2024-01-15T15:12:39;2.40;99.90
51327;DHT22;37412;52.836;6.362;2024-01-15T15:15:26;2.40;99.90
51327;DHT22;37412;52.836;6.362;2024-01-15T15:18:11;2.30;99.90
51327;DHT22;37412;52.836;6.362;2024-01-15T15:20:57;2.20;99.90
51327;DHT22;37412;52.836;6.362;2024-01-15T15:23:43;2.10;99.90
51327;DHT22;37412;52.836;6.362;2024-01-15T15:26:29;2.10;99.90
51327;DHT22;37412;52.836;6.362;2024-01-15T15:29:15;2.00;99.90
51327;DHT22;37412;52.836;6.362;2024-01-15T15:32:02;2.10;99.90
51327;DHT22;37412;52.836;6.362;2024-01-15T15:34:48;1.90;99.90
51327;DHT22;37412;52.836;6.362;2024-01-15T15:37:34;1.90;99.90
51327;DHT22;37412;52.836;6.362;2024-01-15T15:40:20;1.90;99.90
51327;DHT22;37412;52.836;6.362;2024-01-15T15:43:08;1.90;99.90
51327;DHT22;37412;52.836;6.362;2024-01-15T15:45:54;1.80;99.90
51327;DHT22;37412;52.836;6.362;2024-01-15T15:48:40;1.80;99.90
51327;DHT22;37412;52.836;6.362;2024-01-15T15:51:27;1.80;99.90
51327;DHT22;37412;52.836;6.362;2024-01-15T15:54:12;3.00;99.90
51327;DHT22;37412;52.836;6.362;2024-01-15T15:56:58;1.80;99.90
51327;DHT22;37412;52.836;6.362;2024-01-15T15:59:44;1.80;99.90
51327;DHT22;37412;52.836;6.362;2024-01-15T16:02:30;1.80;99.90
51327;DHT22;37412;52.836;6.362;2024-01-15T16:05:16;1.80;99.90
51327;DHT22;37412;52.836;6.362;2024-01-15T16:08:02;1.80;99.90
51327;DHT22;37412;52.836;6.362;2024-01-15T16:10:49;1.70;99.90
51327;DHT22;37412;52.836;6.362;2024-01-15T16:13:37;2.30;99.90
51327;DHT22;37412;52.836;6.362;2024-01-15T16:16:23;1.70;99.90
51327;DHT22;37412;52.836;6.362;2024-01-15T16:19:09;3.30;99.90
51327;DHT22;37412;52.836;6.362;2024-01-15T16:21:55;1.60;99.90
51327;DHT22;37412;52.836;6.362;2024-01-15T16:24:42;1.60;99.90
51327;DHT22;37412;52.836;6.362;2024-01-15T16:27:28;1.60;99.90
51327;DHT22;37412;52.836;6.362;2024-01-15T16:30:14;1.50;99.90
51327;DHT22;37412;52.836;6.362;2024-01-15T16:33:00;1.50;99.90
51327;DHT22;37412;52.836;6.362;2024-01-15T16:35:46;1.50;99.90
51327;DHT22;37412;52.836;6.362;2024-01-15T16:38:32;1.50;99.90
51327;DHT22;37412;52.836;6.362;2024-01-15T16:41:17;1.40;99.90
51327;DHT22;37412;52.836;6.362;2024-01-15T16:44:04;1.40;99.90
51327;DHT22;37412;52.836;6.362;2024-01-15T16:46:49;1.40;99.90
51327;DHT22;37412;52.836;6.362;2024-01-15T16:49:35;1.30;99.90
51327;DHT22;37412;52.836;6.362;2024-01-15T16:52:21;1.30;99.90
51327;DHT22;37412;52.836;6.362;2024-01-15T16:55:08;1.60;99.90
51327;DHT22;37412;52.836;6.362;2024-01-15T16:57:53;1.20;99.90
51327;DHT22;37412;52.836;6.362;2024-01-15T17:00:39;1.30;99.90
51327;DHT22;37412;52.836;6.362;2024-01-15T17:03:25;1.20;99.90
51327;DHT22;37412;52.836;6.362;2024-01-15T17:06:11;1.10;99.90
51327;DHT22;37412;52.836;6.362;2024-01-15T17:08:57;1.10;99.90
51327;DHT22;37412;52.836;6.362;2024-01-15T17:11:43;1.10;99.90
51327;DHT22;37412;52.836;6.362;2024-01-15T17:14:29;1.40;99.90
51327;DHT22;37412;52.836;6.362;2024-01-15T17:17:15;1.10;99.90
51327;DHT22;37412;52.836;6.362;2024-01-15T17:20:01;1.10;99.90
51327;DHT22;37412;52.836;6.362;2024-01-15T17:22:48;1.00;99.90
51327;DHT22;37412;52.836;6.362;2024-01-15T17:25:34;1.00;99.90
51327;DHT22;37412;52.836;6.362;2024-01-15T17:28:20;1.00;99.90
51327;DHT22;37412;52.836;6.362;2024-01-15T17:31:07;1.00;99.90
51327;DHT22;37412;52.836;6.362;2024-01-15T17:33:53;1.00;99.90
51327;DHT22;37412;52.836;6.362;2024-01-15T17:36:39;1.00;99.90
51327;DHT22;37412;52.836;6.362;2024-01-15T17:39:25;1.00;99.90
51327;DHT22;37412;52.836;6.362;2024-01-15T17:42:11;0.90;99.90
51327;DHT22;37412;52.836;6.362;2024-01-15T17:45:00;2.20;99.90
51327;DHT22;37412;52.836;6.362;2024-01-15T17:47:46;1.00;99.90
51327;DHT22;37412;52.836;6.362;2024-01-15T17:50:35;1.00;99.90
51327;DHT22;37412;52.836;6.362;2024-01-15T17:53:22;1.00;99.90